createdAt,value
2019-04-14T00:01:30.480Z,29.00
2019-04-14T00:04:22.666Z,29.40
2019-04-14T00:06:52.599Z,31.60
2019-04-14T00:09:22.726Z,29.43
2019-04-14T00:11:52.698Z,31.23
2019-04-14T00:14:22.929Z,35.00
2019-04-14T00:16:53.196Z,35.83
2019-04-14T00:19:23.772Z,31.77
2019-04-14T00:21:54.186Z,31.40
2019-04-14T00:24:24.911Z,32.60
2019-04-14T00:26:55.223Z,29.60
2019-04-14T00:29:24.674Z,28.33
2019-04-14T00:31:55.361Z,28.20
2019-04-14T00:34:44.112Z,27.97
2019-04-14T00:37:21.118Z,24.50
2019-04-14T00:39:53.280Z,23.73
2019-04-14T00:42:34.717Z,24.07
2019-04-14T00:45:32.184Z,24.17
2019-04-14T00:48:03.509Z,23.47
2019-04-14T00:50:29.734Z,24.00
2019-04-14T00:52:59.274Z,23.07
2019-04-14T00:55:29.253Z,22.53
2019-04-14T00:57:59.484Z,23.60
2019-04-14T01:00:29.746Z,23.40
2019-04-14T01:03:00.180Z,22.97
2019-04-14T01:05:31.772Z,22.20
2019-04-14T01:08:00.976Z,22.33
2019-04-14T01:10:30.309Z,21.43
2019-04-14T01:13:00.608Z,22.27
2019-04-14T01:15:29.418Z,21.60
2019-04-14T01:17:59.283Z,21.43
2019-04-14T01:20:29.601Z,21.97
2019-04-14T01:22:59.825Z,21.67
2019-04-14T01:25:30.229Z,19.40
2019-04-14T01:28:00.328Z,21.97
2019-04-14T01:30:30.620Z,21.63
2019-04-14T01:33:01.019Z,20.23
2019-04-14T01:35:31.415Z,20.73
2019-04-14T01:38:01.635Z,19.07
2019-04-14T01:40:31.467Z,19.80
2019-04-14T01:43:01.693Z,20.77
2019-04-14T01:45:31.740Z,20.97
2019-04-14T01:48:01.727Z,20.63
2019-04-14T01:50:53.832Z,19.97
2019-04-14T01:53:51.261Z,19.60
2019-04-14T01:56:28.045Z,20.33
2019-04-14T01:58:57.922Z,20.80
2019-04-14T02:01:30.356Z,22.80
2019-04-14T02:04:00.658Z,22.33
2019-04-14T02:06:31.278Z,22.00
2019-04-14T02:09:01.187Z,20.83
2019-04-14T02:11:31.374Z,19.77
2019-04-14T02:14:01.589Z,21.03
2019-04-14T02:16:39.710Z,20.43
2019-04-14T02:19:02.467Z,20.73
2019-04-14T02:21:32.427Z,19.20
2019-04-14T02:24:02.548Z,20.80
2019-04-14T02:26:32.962Z,19.93
2019-04-14T02:29:03.504Z,20.80
2019-04-14T02:32:01.443Z,19.93
2019-04-14T02:34:36.239Z,21.60
2019-04-14T02:37:08.099Z,20.60
2019-04-14T02:42:28.310Z,20.93
2019-04-14T02:44:38.012Z,19.93
2019-04-14T02:47:27.400Z,20.00
2019-04-14T02:52:14.440Z,19.73
2019-04-14T02:54:51.804Z,20.43
2019-04-14T02:57:23.049Z,21.23
2019-04-14T02:59:45.275Z,21.67
2019-04-14T03:04:44.830Z,22.27
2019-04-14T03:07:51.568Z,19.83
2019-04-14T03:09:52.407Z,19.50
2019-04-14T03:12:16.792Z,20.07
2019-04-14T03:14:53.752Z,20.43
2019-04-14T03:17:30.243Z,19.17
2019-04-14T03:23:13.853Z,18.67
2019-04-14T03:25:30.106Z,19.43
2019-04-14T03:28:41.455Z,18.87
2019-04-14T03:36:46.310Z,20.93
2019-04-14T03:43:41.429Z,19.63
2019-04-14T03:53:47.027Z,18.60
2019-04-14T03:56:31.596Z,19.90
2019-04-14T03:59:01.887Z,19.57
2019-04-14T04:01:32.292Z,19.90
2019-04-14T04:04:01.707Z,19.57
2019-04-14T04:06:31.365Z,18.03
2019-04-14T04:09:01.808Z,16.93
2019-04-14T04:11:32.211Z,18.27
2019-04-14T04:14:01.646Z,18.17
2019-04-14T04:16:59.505Z,16.73
2019-04-14T04:19:46.994Z,17.10
2019-04-14T04:22:41.417Z,17.07
2019-04-14T04:25:35.897Z,15.60
2019-04-14T04:28:10.112Z,15.60
2019-04-14T04:30:47.641Z,16.63
2019-04-14T04:33:35.861Z,16.30
2019-04-14T04:36:13.940Z,16.27
2019-04-14T04:38:55.335Z,16.07
2019-04-14T04:41:25.362Z,16.00
2019-04-14T04:43:56.032Z,15.87
2019-04-14T04:46:26.509Z,16.57
2019-04-14T04:49:03.379Z,16.30
2019-04-14T04:51:26.970Z,16.07
2019-04-14T04:53:57.050Z,15.77
2019-04-14T04:56:27.479Z,15.80
2019-04-14T04:58:56.914Z,16.90
2019-04-14T05:01:27.388Z,16.63
2019-04-14T05:03:57.875Z,17.00
2019-04-14T05:06:57.070Z,16.07
2019-04-14T05:09:44.849Z,16.93
2019-04-14T05:12:43.497Z,16.23
2019-04-14T05:15:38.062Z,16.07
2019-04-14T05:18:09.113Z,15.50
2019-04-14T05:20:39.776Z,15.87
2019-04-14T05:23:10.224Z,14.97
2019-04-14T05:25:40.729Z,14.97
2019-04-14T05:28:11.238Z,14.80
2019-04-14T05:30:41.486Z,16.10
2019-04-14T05:33:12.003Z,15.10
2019-04-14T05:35:42.341Z,15.43
2019-04-14T05:38:12.666Z,14.90
2019-04-14T05:40:42.877Z,15.00
2019-04-14T05:43:13.395Z,14.27
2019-04-14T05:45:43.700Z,15.40
2019-04-14T05:48:13.961Z,15.67
2019-04-14T05:50:44.366Z,14.23
2019-04-14T05:53:13.968Z,13.43
2019-04-14T05:55:43.839Z,14.03
2019-04-14T05:58:14.297Z,14.67
2019-04-14T06:00:46.469Z,15.03
2019-04-14T06:03:16.727Z,14.47
2019-04-14T06:05:46.085Z,14.77
2019-04-14T06:08:15.342Z,14.43
2019-04-14T06:10:44.606Z,14.43
2019-04-14T06:13:13.894Z,13.50
2019-04-14T06:15:43.156Z,14.97
2019-04-14T06:18:12.469Z,15.13
2019-04-14T06:20:41.777Z,15.40
2019-04-14T06:23:11.021Z,15.47
2019-04-14T06:25:40.266Z,14.80
2019-04-14T06:28:09.601Z,14.03
2019-04-14T06:30:56.586Z,14.30
2019-04-14T06:33:43.777Z,14.50
2019-04-14T06:36:41.189Z,16.40
2019-04-14T06:39:29.416Z,14.57
2019-04-14T06:41:58.750Z,14.90
2019-04-14T06:44:28.074Z,14.83
2019-04-14T06:46:57.378Z,14.80
2019-04-14T06:49:26.633Z,14.43
2019-04-14T06:51:55.898Z,14.77
2019-04-14T06:54:25.165Z,14.07
2019-04-14T06:56:54.510Z,13.67
2019-04-14T06:59:23.831Z,14.50
2019-04-14T07:01:53.092Z,13.90
2019-04-14T07:04:22.377Z,13.47
2019-04-14T07:06:51.650Z,14.07
2019-04-14T07:09:20.910Z,15.17
2019-04-14T07:11:50.182Z,14.93
2019-04-14T07:14:19.433Z,15.57
2019-04-14T07:16:51.306Z,15.03
2019-04-14T07:19:19.717Z,14.43
2019-04-14T07:21:49.095Z,14.23
2019-04-14T07:24:18.366Z,14.77
2019-04-14T07:26:47.750Z,15.10
2019-04-14T07:29:17.088Z,13.97
2019-04-14T07:32:17.433Z,13.50
2019-04-14T07:34:56.835Z,14.47
2019-04-14T07:37:54.139Z,14.40
2019-04-14T07:40:42.345Z,14.33
2019-04-14T07:43:21.122Z,15.77
2019-04-14T07:46:14.956Z,14.93
2019-04-14T07:48:51.198Z,14.97
2019-04-14T07:51:37.409Z,14.80
2019-04-14T07:54:17.057Z,14.63
2019-04-14T07:56:55.575Z,14.23
2019-04-14T07:59:34.337Z,14.67
2019-04-14T08:02:11.401Z,13.57
2019-04-14T08:04:45.666Z,13.83
2019-04-14T08:07:14.922Z,14.20
2019-04-14T08:09:44.189Z,13.23
2019-04-14T08:12:13.486Z,14.37
2019-04-14T08:14:42.743Z,14.27
2019-04-14T08:17:12.086Z,14.80
2019-04-14T08:19:41.355Z,13.47
2019-04-14T08:22:10.640Z,13.77
2019-04-14T08:24:39.905Z,13.73
2019-04-14T08:27:09.170Z,12.60
2019-04-14T08:29:38.488Z,12.50
2019-04-14T08:32:07.825Z,14.17
2019-04-14T08:34:37.158Z,14.47
2019-04-14T08:37:06.521Z,14.17
2019-04-14T08:39:35.929Z,13.60
2019-04-14T08:42:27.330Z,13.20
2019-04-14T08:44:57.842Z,14.00
2019-04-14T08:47:50.873Z,13.67
2019-04-14T08:50:25.577Z,13.53
2019-04-14T08:53:22.937Z,13.57
2019-04-14T08:56:14.157Z,14.33
2019-04-14T08:59:02.361Z,12.67
2019-04-14T09:01:40.070Z,14.13
2019-04-14T09:04:29.457Z,12.10
2019-04-14T09:07:08.805Z,12.50
2019-04-14T09:09:43.654Z,11.30
2019-04-14T09:12:16.284Z,11.07
2019-04-14T09:14:56.423Z,11.87
2019-04-14T09:17:16.894Z,12.07
2019-04-14T09:19:46.157Z,12.85
2019-04-14T09:22:15.453Z,12.53
2019-04-14T09:24:44.885Z,12.15
2019-04-14T09:27:14.177Z,12.23
2019-04-14T09:29:43.471Z,12.20
2019-04-14T09:32:13.921Z,12.18
2019-04-14T09:34:43.430Z,12.50
2019-04-14T09:37:12.948Z,12.82
2019-04-14T09:39:43.158Z,11.78
2019-04-14T09:42:12.718Z,12.23
2019-04-14T09:44:42.406Z,11.70
2019-04-14T09:47:12.783Z,11.48
2019-04-14T09:49:42.054Z,11.80
2019-04-14T09:52:11.313Z,11.70
2019-04-14T09:54:41.001Z,11.28
2019-04-14T09:57:10.270Z,11.40
2019-04-14T09:59:39.565Z,12.13
2019-04-14T10:02:08.838Z,11.67
2019-04-14T10:04:38.185Z,11.88
2019-04-14T10:07:07.454Z,11.33
2019-04-14T10:09:36.797Z,11.63
2019-04-14T10:12:06.178Z,10.68
2019-04-14T10:14:35.441Z,11.60
2019-04-14T10:17:04.813Z,11.15
2019-04-14T10:19:34.117Z,11.75
2019-04-14T10:22:03.377Z,11.70
2019-04-14T10:24:32.658Z,11.83
2019-04-14T10:27:01.955Z,12.75
2019-04-14T10:29:31.246Z,11.73
2019-04-14T10:32:00.517Z,10.88
2019-04-14T10:34:29.826Z,9.83
2019-04-14T10:36:59.102Z,10.20
2019-04-14T10:39:28.354Z,11.10
2019-04-14T10:41:57.635Z,10.93
2019-04-14T10:44:26.937Z,10.98
2019-04-14T10:46:56.213Z,10.40
2019-04-14T10:49:25.474Z,10.43
2019-04-14T10:51:54.756Z,10.13
2019-04-14T10:54:24.107Z,10.70
2019-04-14T10:56:53.415Z,10.83
2019-04-14T10:59:22.665Z,11.20
2019-04-14T11:01:51.940Z,9.83
2019-04-14T11:04:21.210Z,9.83
2019-04-14T11:07:06.122Z,9.60
2019-04-14T11:09:35.545Z,9.60
2019-04-14T11:12:05.113Z,9.63
2019-04-14T11:14:34.461Z,9.80
2019-04-14T11:17:03.730Z,9.67
2019-04-14T11:19:33.021Z,8.97
2019-04-14T11:22:02.335Z,9.33
2019-04-14T11:24:31.586Z,9.77
2019-04-14T11:27:00.868Z,10.37
2019-04-14T11:29:30.126Z,9.97
2019-04-14T11:32:17.374Z,9.90
2019-04-14T11:35:08.800Z,9.23
2019-04-14T11:37:51.317Z,8.80
2019-04-14T11:40:23.245Z,8.27
2019-04-14T11:42:52.982Z,10.17
2019-04-14T11:45:22.466Z,9.97
2019-04-14T11:47:51.810Z,9.30
2019-04-14T11:50:21.118Z,9.73
2019-04-14T11:52:50.411Z,8.20
2019-04-14T11:55:19.785Z,9.27
2019-04-14T11:57:49.056Z,9.27
2019-04-14T12:00:45.559Z,8.97
2019-04-14T12:03:42.797Z,8.93
2019-04-14T12:06:39.843Z,8.47
2019-04-14T12:09:24.205Z,9.20
2019-04-14T12:11:53.469Z,9.77
2019-04-14T12:14:22.769Z,9.47
2019-04-14T12:16:52.033Z,9.33
2019-04-14T12:19:21.289Z,9.00
2019-04-14T12:21:50.565Z,8.80
2019-04-14T12:24:20.061Z,8.67
2019-04-14T12:26:49.413Z,8.73
2019-04-14T12:29:18.949Z,8.77
2019-04-14T12:31:48.756Z,8.37
2019-04-14T12:34:18.458Z,8.87
2019-04-14T12:36:48.047Z,8.37
2019-04-14T12:39:22.525Z,8.27
2019-04-14T12:41:57.477Z,8.17
2019-04-14T12:44:45.542Z,8.50
2019-04-14T12:47:40.367Z,8.30
2019-04-14T12:50:15.931Z,9.43
2019-04-14T12:52:45.219Z,8.97
2019-04-14T12:55:15.173Z,9.00
2019-04-14T12:57:52.778Z,9.03
2019-04-14T13:00:37.509Z,9.03
2019-04-14T13:03:06.809Z,8.80
2019-04-14T13:05:36.102Z,8.17
2019-04-14T13:08:05.495Z,8.13
2019-04-14T13:10:34.981Z,7.90
2019-04-14T13:13:04.295Z,8.13
2019-04-14T13:15:33.590Z,8.00
2019-04-14T13:18:02.853Z,8.07
2019-04-14T13:20:32.107Z,7.53
2019-04-14T13:23:01.406Z,7.70
2019-04-14T13:25:30.667Z,8.10
2019-04-14T13:27:59.918Z,7.80
2019-04-14T13:30:35.149Z,7.70
2019-04-14T13:33:04.743Z,7.87
2019-04-14T13:35:34.037Z,8.30
2019-04-14T13:38:03.310Z,7.73
2019-04-14T13:40:32.554Z,7.80
2019-04-14T13:43:01.854Z,8.13
2019-04-14T13:45:31.186Z,8.23
2019-04-14T13:48:00.449Z,7.63
2019-04-14T13:50:29.742Z,8.50
2019-04-14T13:52:59.038Z,8.40
2019-04-14T13:55:28.301Z,8.20
2019-04-14T13:57:57.570Z,7.93
2019-04-14T14:00:27.222Z,8.30
2019-04-14T14:02:55.893Z,9.10
2019-04-14T14:05:25.229Z,8.03
2019-04-14T14:07:54.578Z,8.50
2019-04-14T14:10:23.838Z,8.20
2019-04-14T14:12:58.098Z,8.10
2019-04-14T14:15:55.349Z,8.70
2019-04-14T14:18:38.274Z,8.27
2019-04-14T14:21:26.522Z,8.80
2019-04-14T14:24:17.810Z,8.50
2019-04-14T14:26:48.214Z,8.10
2019-04-14T14:29:17.532Z,8.47
2019-04-14T14:31:46.949Z,9.10
2019-04-14T14:34:16.221Z,8.97
2019-04-14T14:36:45.492Z,9.47
2019-04-14T14:39:18.291Z,10.10
2019-04-14T14:41:49.450Z,8.83
2019-04-14T14:44:18.947Z,8.80
2019-04-14T14:47:13.301Z,8.60
2019-04-14T14:50:00.474Z,8.50
2019-04-14T14:52:30.694Z,8.10
2019-04-14T14:55:00.002Z,8.17
2019-04-14T14:57:29.357Z,8.10
2019-04-14T14:59:58.634Z,7.97
2019-04-14T15:02:27.881Z,8.13
2019-04-14T15:04:57.153Z,8.30
2019-04-14T15:07:26.461Z,8.13
2019-04-14T15:09:55.790Z,8.60
2019-04-14T15:12:25.061Z,8.60
2019-04-14T15:14:54.354Z,8.90
2019-04-14T15:17:23.612Z,8.17
2019-04-14T15:19:52.934Z,8.10
2019-04-14T15:22:22.201Z,8.23
2019-04-14T15:24:51.474Z,7.47
2019-04-14T15:27:20.770Z,8.87
2019-04-14T15:29:50.033Z,8.60
2019-04-14T15:32:19.291Z,8.83
2019-04-14T15:34:48.594Z,7.77
2019-04-14T15:37:17.906Z,8.47
2019-04-14T15:39:47.193Z,8.27
2019-04-14T15:42:16.463Z,8.27
2019-04-14T15:44:45.741Z,8.63
2019-04-14T15:47:15.039Z,8.43
2019-04-14T15:49:44.310Z,8.10
2019-04-14T15:52:13.557Z,9.40
2019-04-14T15:54:42.942Z,9.73
2019-04-14T15:57:29.657Z,9.90
2019-04-14T16:00:19.030Z,9.00
2019-04-14T16:03:06.327Z,8.93
2019-04-14T16:06:00.414Z,8.87
2019-04-14T16:08:33.510Z,8.43
2019-04-14T16:11:27.597Z,8.67
2019-04-14T16:14:27.858Z,9.97
2019-04-14T16:17:10.343Z,8.53
2019-04-14T16:19:49.124Z,8.47
2019-04-14T16:22:18.434Z,8.27
2019-04-14T16:24:47.693Z,8.00
2019-04-14T16:27:38.677Z,7.83
2019-04-14T16:30:26.534Z,7.53
2019-04-14T16:33:05.206Z,8.30
2019-04-14T16:35:34.473Z,7.27
2019-04-14T16:38:03.747Z,7.80
2019-04-14T16:40:33.002Z,7.67
2019-04-14T16:43:02.269Z,7.10
2019-04-14T16:45:30.938Z,7.67
2019-04-14T16:48:00.229Z,8.43
2019-04-14T16:50:29.506Z,9.13
2019-04-14T16:53:07.213Z,9.23
2019-04-14T16:56:01.454Z,8.90
2019-04-14T16:58:40.506Z,9.87
2019-04-14T17:01:12.764Z,11.43
2019-04-14T17:03:42.071Z,11.77
2019-04-14T17:06:11.418Z,10.60
2019-04-14T17:08:40.706Z,10.73
2019-04-14T17:11:09.970Z,10.27
2019-04-14T17:13:42.539Z,9.37
2019-04-14T17:16:32.669Z,9.60
2019-04-14T17:19:09.658Z,8.43
2019-04-14T17:22:04.694Z,9.60
2019-04-14T17:24:58.893Z,7.90
2019-04-14T17:27:35.729Z,8.37
2019-04-14T17:30:23.651Z,8.70
2019-04-14T17:33:06.691Z,8.97
2019-04-14T17:35:53.857Z,9.50
2019-04-14T17:38:45.085Z,10.03
2019-04-14T17:41:26.594Z,11.17
2019-04-14T17:44:23.618Z,13.00
2019-04-14T17:47:17.589Z,11.87
2019-04-14T17:50:02.299Z,12.20
2019-04-14T17:52:43.105Z,12.00
2019-04-14T17:55:49.782Z,10.97
2019-04-14T17:58:25.003Z,10.40
2019-04-14T18:01:19.301Z,10.77
2019-04-14T18:03:55.623Z,9.93
2019-04-14T18:06:33.050Z,10.50
2019-04-14T18:09:36.678Z,12.23
2019-04-14T18:12:10.392Z,11.80
2019-04-14T18:14:47.813Z,13.07
2019-04-14T18:17:51.167Z,12.57
2019-04-14T18:20:25.858Z,13.43
2019-04-14T18:22:55.157Z,13.37
2019-04-14T18:25:24.474Z,12.37
2019-04-14T18:28:27.644Z,11.40
2019-04-14T18:31:06.343Z,10.20
2019-04-14T18:33:56.026Z,10.40
2019-04-14T18:36:34.682Z,8.33
2019-04-14T18:39:22.534Z,8.73
2019-04-14T18:41:58.933Z,9.23
2019-04-14T18:44:44.913Z,8.93
2019-04-14T18:47:23.762Z,10.70
2019-04-14T18:50:03.918Z,11.43
2019-04-14T18:52:58.274Z,10.77
2019-04-14T18:55:45.726Z,10.43
2019-04-14T18:58:45.976Z,10.53
2019-04-14T19:01:20.578Z,9.97
2019-04-14T19:03:49.672Z,13.63
2019-04-14T19:06:19.339Z,16.30
2019-04-14T19:08:50.950Z,18.00
2019-04-14T19:11:42.573Z,18.57
2019-04-14T19:14:15.338Z,15.83
2019-04-14T19:16:48.372Z,16.60
2019-04-14T19:19:19.354Z,16.03
2019-04-14T19:21:48.754Z,14.33
2019-04-14T19:24:18.119Z,13.43
2019-04-14T19:26:47.438Z,13.57
2019-04-14T19:29:16.717Z,13.43
2019-04-14T19:31:46.018Z,13.30
2019-04-14T19:34:15.356Z,14.30
2019-04-14T19:36:44.629Z,15.80
2019-04-14T19:39:13.918Z,14.77
2019-04-14T19:41:43.233Z,30.40
2019-04-14T19:44:12.505Z,22.33
2019-04-14T19:46:41.770Z,17.20
2019-04-14T19:49:11.061Z,16.37
2019-04-14T19:51:40.329Z,16.40
2019-04-14T19:54:09.750Z,16.43
2019-04-14T19:56:39.019Z,18.10
2019-04-14T19:59:08.353Z,16.20
2019-04-14T20:01:37.634Z,15.83
2019-04-14T20:04:06.898Z,15.53
2019-04-14T20:06:36.185Z,15.63
2019-04-14T20:09:06.986Z,14.03
2019-04-14T20:11:36.467Z,15.00
2019-04-14T20:14:05.790Z,14.53
2019-04-14T20:17:02.378Z,15.50
2019-04-14T20:19:56.946Z,14.03
2019-04-14T20:22:39.516Z,13.83
2019-04-14T20:25:34.168Z,15.10
2019-04-14T20:28:28.670Z,16.97
2019-04-14T20:31:29.293Z,19.30
2019-04-14T20:33:58.757Z,19.97
2019-04-14T20:36:28.033Z,18.33
2019-04-14T20:38:57.465Z,18.50
2019-04-14T20:41:26.733Z,15.90
2019-04-14T20:43:55.992Z,14.37
2019-04-14T20:46:25.314Z,13.33
2019-04-14T20:48:54.601Z,14.07
2019-04-14T20:51:23.854Z,12.33
2019-04-14T20:53:53.235Z,12.93
2019-04-14T20:56:22.566Z,12.50
2019-04-14T20:58:51.938Z,15.37
2019-04-14T21:01:22.013Z,14.27
2019-04-14T21:03:59.366Z,13.87
2019-04-14T21:06:53.289Z,14.63
2019-04-14T21:09:30.269Z,15.07
2019-04-14T21:12:03.341Z,14.73
2019-04-14T21:14:55.026Z,13.37
2019-04-14T21:17:35.326Z,13.80
2019-04-14T21:20:11.289Z,13.83
2019-04-14T21:22:55.847Z,14.37
2019-04-14T21:25:59.258Z,13.50
2019-04-14T21:28:26.955Z,14.43
2019-04-14T21:31:14.240Z,14.60
2019-04-14T21:33:49.393Z,16.50
2019-04-14T21:36:23.217Z,14.73
2019-04-14T21:39:23.490Z,15.93
2019-04-14T21:41:52.822Z,13.87
2019-04-14T21:44:22.094Z,13.80
2019-04-14T21:46:51.353Z,14.40
2019-04-14T21:49:20.631Z,14.20
2019-04-14T21:52:14.426Z,14.17
2019-04-14T21:54:44.470Z,13.53
2019-04-14T21:57:32.716Z,14.97
2019-04-14T22:00:23.446Z,15.00
2019-04-14T22:03:10.342Z,14.57
2019-04-14T22:05:45.525Z,14.67
2019-04-14T22:08:18.954Z,14.17
2019-04-14T22:10:55.057Z,13.57
2019-04-14T22:13:24.426Z,15.03
2019-04-14T22:15:53.678Z,15.20
2019-04-14T22:18:23.053Z,14.67
2019-04-14T22:20:52.326Z,14.27
2019-04-14T22:23:21.585Z,14.50
2019-04-14T22:25:50.842Z,14.07
2019-04-14T22:28:20.135Z,14.33
2019-04-14T22:30:49.431Z,14.60
2019-04-14T22:33:18.754Z,14.13
2019-04-14T22:35:48.026Z,14.43
2019-04-14T22:38:17.301Z,13.37
2019-04-14T22:40:46.565Z,14.03
2019-04-14T22:43:15.813Z,13.97
2019-04-14T22:45:45.305Z,13.13
2019-04-14T22:48:14.565Z,14.17
2019-04-14T22:50:43.899Z,14.70
2019-04-14T22:53:12.578Z,14.10
2019-04-14T22:55:41.944Z,14.13
2019-04-14T22:58:11.270Z,14.17
2019-04-14T23:00:51.221Z,14.43
2019-04-14T23:03:45.577Z,15.13
2019-04-14T23:06:41.298Z,15.07
2019-04-14T23:09:37.586Z,14.93
2019-04-14T23:12:17.238Z,14.33
2019-04-14T23:15:05.477Z,14.87
2019-04-14T23:17:38.095Z,14.27
2019-04-14T23:20:23.172Z,14.80
2019-04-14T23:23:11.570Z,14.27
2019-04-14T23:25:40.829Z,14.27
2019-04-14T23:28:10.086Z,14.83
2019-04-14T23:30:39.381Z,14.10
2019-04-14T23:33:08.655Z,14.20
2019-04-14T23:35:37.982Z,14.97
2019-04-14T23:38:07.237Z,13.77
2019-04-14T23:40:36.605Z,14.63
2019-04-14T23:43:05.963Z,14.53
2019-04-14T23:45:35.225Z,13.90
2019-04-14T23:48:04.481Z,14.17
2019-04-14T23:50:33.749Z,13.13
2019-04-14T23:53:03.026Z,13.10
2019-04-14T23:55:32.372Z,12.90
2019-04-14T23:58:01.688Z,13.63
